Baltimore — WD19338 — position and weather

sailwx.info

Track history (hours):
 
Tides and Currents Weather Stations Pressure Air Temp Water Temp Dewpoint Dewpoint Depression Visibility Wind Speed Wind Dir Waves Ship Positions

Baltimore

Last reported at 2018-May-22 11:45 UTC. Time now 2018-May-22 19:38 UTC.
Position N 34°16' W 077°57'.

Length 33 m.

Type: Tug. MMSI: 338602000.

Date/timePositionNaut miles runAvg speedWind from/ knotsBaromVisibWave heightAir tempDewpointWater temp
2018-May-22 11:45N 34°16' W 077°57'0 0.0
2018-May-22 11:12N 34°16' W 077°57'0 0.3
2018-May-22 11:00N 34°16' W 077°57'2 4.0
2018-May-22 10:30N 34°14' W 077°57'87 2.7
2018-May-21 02:26N 34°28' W 076°13'12 4.6
2018-May-20 23:48N 34°36' W 076°02'2 4.7
2018-May-20 23:28N 34°37' W 076°00'  
2018-May-18 13:40N 38°44' W 076°27'2 5.8
2018-May-18 13:24N 38°46' W 076°27'2 5.7
2018-May-18 13:00N 38°48' W 076°27'3 5.4
2018-May-18 12:30N 38°50' W 076°26'3 5.3
2018-May-18 12:00N 38°53' W 076°25'3 5.3
2018-May-18 11:30N 38°56' W 076°24'2 4.2
2018-May-18 11:00N 38°58' W 076°23'0 0.5
2018-May-18 10:30N 38°58' W 076°23'3 5.8
2018-May-18 10:00N 39°01' W 076°22'7 5.4
2018-May-18 08:42N 39°07' W 076°19'13 6.6
2018-May-18 06:46N 39°19' W 076°13'2 7.9
2018-May-18 06:30N 39°21' W 076°11'4 7.8
2018-May-18 06:00N 39°23' W 076°07'4 7.3
2018-May-18 05:30N 39°24' W 076°02'3 7.0
2018-May-18 05:00N 39°27' W 075°59'3 6.6
2018-May-18 04:31N 39°29' W 075°56'3 6.1
2018-May-18 04:00N 39°31' W 075°53'3 5.8
2018-May-18 03:31N 39°32' W 075°50'3 5.6
2018-May-18 03:01N 39°32' W 075°46'3 5.4
2018-May-18 02:28N 39°33' W 075°42'2 5.0
2018-May-18 02:00N 39°33' W 075°39'2 5.0
2018-May-18 01:31N 39°33' W 075°36'2 4.9
2018-May-18 01:01N 39°34' W 075°33'3 6.1
2018-May-18 00:31N 39°37' W 075°35'4 8.1
2018-May-18 00:00N 39°40' W 075°32'4 8.8
2018-May-17 23:31N 39°44' W 075°30'4 8.3
2018-May-17 23:00N 39°48' W 075°27'4 8.5
2018-May-17 22:31N 39°50' W 075°22'4 8.2
2018-May-17 22:01N 39°51' W 075°17'1 1.4
2018-May-17 21:30N 39°51' W 075°16'0 0.3
2018-May-17 21:00N 39°51' W 075°16'0 0.0
2018-May-17 20:31N 39°51' W 075°16'0 0.0
2018-May-17 20:00N 39°51' W 075°16'0 0.0
2018-May-17 19:31N 39°51' W 075°16'0 0.2
2018-May-17 19:01N 39°51' W 075°16'4 7.5
2018-May-17 18:31N 39°53' W 075°12'1 1.5
2018-May-17 18:00N 39°54' W 075°12'0 0.0
2018-May-17 17:30N 39°54' W 075°12'0 0.0
2018-May-17 17:00N 39°54' W 075°12'0 0.0
2018-May-17 16:31N 39°54' W 075°12'0 0.0
2018-May-17 16:01N 39°54' W 075°12'0 0.0
2018-May-17 15:30N 39°54' W 075°12'0 0.0
2018-May-17 15:01N 39°54' W 075°12'0 0.0
2018-May-17 14:30N 39°54' W 075°12'0 0.0
2018-May-17 14:01N 39°54' W 075°12'0 0.0
2018-May-17 13:31N 39°54' W 075°12'0 0.0
2018-May-17 13:01N 39°54' W 075°12'0 0.0
2018-May-17 12:30N 39°54' W 075°12'0 0.0
2018-May-17 12:01N 39°54' W 075°12'0 0.0
2018-May-17 11:30N 39°54' W 075°12'0 0.0
2018-May-17 11:00N 39°54' W 075°12'0 0.0
2018-May-17 10:30N 39°54' W 075°12'0 0.0
2018-May-17 10:01N 39°54' W 075°12'0 0.0
2018-May-17 09:30N 39°54' W 075°12'0 0.0
2018-May-17 09:00N 39°54' W 075°12'0 0.0
2018-May-17 08:31N 39°54' W 075°12'0 0.0
2018-May-17 08:00N 39°54' W 075°12'0 0.0
2018-May-17 07:30N 39°54' W 075°12'0 0.0
2018-May-17 07:00N 39°54' W 075°12'0 0.0
2018-May-17 06:31N 39°54' W 075°12'0 0.0
2018-May-17 06:00N 39°54' W 075°12'0 0.0
2018-May-17 05:30N 39°54' W 075°12'0 0.0
2018-May-17 05:00N 39°54' W 075°12'0 0.0
2018-May-17 04:30N 39°54' W 075°12'0 0.0
2018-May-17 04:00N 39°54' W 075°12'0 0.0
2018-May-17 03:31N 39°54' W 075°12'0 0.0
2018-May-17 03:00N 39°54' W 075°12'0 0.0
2018-May-17 02:30N 39°54' W 075°12'0 0.0
2018-May-17 02:00N 39°54' W 075°12'0 0.0
2018-May-17 01:31N 39°54' W 075°12'0 0.0
2018-May-17 01:00N 39°54' W 075°12'0 0.0
2018-May-17 00:30N 39°54' W 075°12'0 0.0
2018-May-17 00:00N 39°54' W 075°12'0 0.0
2018-May-16 23:30N 39°54' W 075°12'0 0.0
2018-May-16 23:00N 39°54' W 075°12'0 0.0
2018-May-16 22:30N 39°54' W 075°12'0 0.0
2018-May-16 22:00N 39°54' W 075°12'0 0.0
2018-May-16 21:30N 39°54' W 075°12'0 0.0
2018-May-16 21:00N 39°54' W 075°12'0 0.0
2018-May-16 20:30N 39°54' W 075°12'0 0.0
2018-May-16 20:00N 39°54' W 075°12'0 0.0
2018-May-16 19:30N 39°54' W 075°12'0 0.0
2018-May-16 19:00N 39°54' W 075°12'0 0.1
2018-May-16 18:30N 39°54' W 075°12'0 0.0
2018-May-16 18:00N 39°54' W 075°12'1 1.4
2018-May-16 17:30N 39°53' W 075°12'4 8.3
2018-May-16 17:00N 39°51' W 075°16'0 0.0
2018-May-16 16:30N 39°51' W 075°16'2 3.1
2018-May-16 16:00N 39°51' W 075°14'3 5.4
2018-May-16 15:30N 39°54' W 075°12'0 0.3
2018-May-16 15:00N 39°54' W 075°12'0 0.1
2018-May-16 14:29N 39°54' W 075°12'0 0.0
2018-May-16 14:00N 39°54' W 075°12'0 0.0
2018-May-16 13:30N 39°54' W 075°12'0 0.0
2018-May-16 13:00N 39°54' W 075°12'0 0.0
2018-May-16 12:30N 39°54' W 075°12'0 0.0
2018-May-16 12:00N 39°54' W 075°12'0 0.0
2018-May-16 11:31N 39°54' W 075°12'0 0.0
2018-May-16 11:01N 39°54' W 075°12'0 0.0
2018-May-16 10:30N 39°54' W 075°12'0 0.0
2018-May-16 10:01N 39°54' W 075°12'0 0.0
2018-May-16 09:30N 39°54' W 075°12'0 0.0
2018-May-16 09:01N 39°54' W 075°12'0 0.0
2018-May-16 08:30N 39°54' W 075°12'0 0.0
2018-May-16 08:00N 39°54' W 075°12'0 0.0
2018-May-16 07:30N 39°54' W 075°12'0 0.0
2018-May-16 07:00N 39°54' W 075°12'0 0.0
2018-May-16 06:30N 39°54' W 075°12'0 0.0
2018-May-16 06:00N 39°54' W 075°12'0 0.0
2018-May-16 05:30N 39°54' W 075°12'0 0.0
2018-May-16 05:00N 39°54' W 075°12'0 0.0
2018-May-16 04:30N 39°54' W 075°12'0 0.0
2018-May-16 04:00N 39°54' W 075°12'0 0.0
2018-May-16 03:30N 39°54' W 075°12'0 0.0
2018-May-16 03:00N 39°54' W 075°12'0 0.0
2018-May-16 02:30N 39°54' W 075°12'0 0.0
2018-May-16 02:00N 39°54' W 075°12'0 0.0
2018-May-16 01:30N 39°54' W 075°12'0 0.0
2018-May-16 01:00N 39°54' W 075°12'0 0.0
2018-May-16 00:30N 39°54' W 075°12'0 0.0
2018-May-16 00:00N 39°54' W 075°12'0 0.1
2018-May-15 23:30N 39°54' W 075°12'0 0.0
2018-May-15 23:00N 39°54' W 075°12'0 0.0
2018-May-15 22:30N 39°54' W 075°12'0 0.0
2018-May-15 22:00N 39°54' W 075°12'0 0.0
2018-May-15 21:30N 39°54' W 075°12'0 0.0
2018-May-15 21:00N 39°54' W 075°12'0 0.0
2018-May-15 20:30N 39°54' W 075°12'0 0.0
2018-May-15 20:00N 39°54' W 075°12'0 0.0
2018-May-15 19:30N 39°54' W 075°12'0 0.0
2018-May-15 19:01N 39°54' W 075°12'0 0.0
2018-May-15 18:30N 39°54' W 075°12'0 0.0
2018-May-15 18:00N 39°54' W 075°12'0 0.0
2018-May-15 17:30N 39°54' W 075°12'0 0.0
2018-May-15 17:00N 39°54' W 075°12'0 0.0
2018-May-15 16:30N 39°54' W 075°12'0 0.0
2018-May-15 16:00N 39°54' W 075°12'0 0.0
2018-May-15 15:30N 39°54' W 075°12'0 0.0
2018-May-15 15:01N 39°54' W 075°12'0 0.0
2018-May-15 14:30N 39°54' W 075°12'0 0.0
2018-May-15 14:00N 39°54' W 075°12'0 0.0
2018-May-15 13:30N 39°54' W 075°12'0 0.0
2018-May-15 13:00N 39°54' W 075°12'0 0.0
2018-May-15 12:28N 39°54' W 075°12'0 0.0
2018-May-15 11:59N 39°54' W 075°12'0 0.1
2018-May-15 11:30N 39°54' W 075°12'0 0.0
2018-May-15 11:00N 39°54' W 075°12'0 0.0
2018-May-15 10:30N 39°54' W 075°12'0 0.0
2018-May-15 10:00N 39°54' W 075°12'0 0.0
2018-May-15 09:30N 39°54' W 075°12'0 0.0
2018-May-15 09:00N 39°54' W 075°12'0 0.0
2018-May-15 08:31N 39°54' W 075°12'0 0.0
2018-May-15 08:00N 39°54' W 075°12'0 0.0
2018-May-15 07:30N 39°54' W 075°12'0 0.2
2018-May-15 07:00N 39°54' W 075°12'0 1.0
2018-May-15 06:30N 39°53' W 075°12'2 3.6
2018-May-15 06:00N 39°52' W 075°13'0 0.0
2018-May-15 05:30N 39°52' W 075°13'0 0.0
2018-May-15 05:00N 39°52' W 075°13'0 0.0
2018-May-15 04:30N 39°52' W 075°13'0 0.0
2018-May-15 04:00N 39°52' W 075°13'0 0.0
2018-May-15 03:30N 39°52' W 075°13'0 0.0
2018-May-15 03:00N 39°52' W 075°13'0 0.0
2018-May-15 02:31N 39°52' W 075°13'0 0.0
2018-May-15 02:01N 39°52' W 075°13'0 0.0
2018-May-15 01:30N 39°52' W 075°13'0 0.1
2018-May-15 01:00N 39°52' W 075°13'0 0.1
2018-May-15 00:30N 39°52' W 075°13'0 0.1
2018-May-15 00:00N 39°52' W 075°13'0 0.0
2018-May-14 23:30N 39°52' W 075°13'0 0.0
2018-May-14 23:01N 39°52' W 075°13'0 0.0
2018-May-14 22:30N 39°52' W 075°13'0 0.3
2018-May-14 22:00N 39°52' W 075°13'3 6.5
2018-May-14 21:31N 39°51' W 075°17'3 6.2
2018-May-14 21:01N 39°50' W 075°21'3 6.1
2018-May-14 20:31N 39°48' W 075°25'3 6.5
2018-May-14 20:01N 39°47' W 075°28'3 6.5
2018-May-14 19:31N 39°44' W 075°30'3 6.3
2018-May-14 19:00N 39°41' W 075°31'3 6.7
2018-May-14 18:30N 39°38' W 075°34'3 6.2
2018-May-14 18:01N 39°35' W 075°34'2 3.7
2018-May-14 17:31N 39°33' W 075°35'3 6.5
2018-May-14 17:00N 39°33' W 075°39'3 6.6
2018-May-14 16:30N 39°33' W 075°43'3 6.9
2018-May-14 16:01N 39°32' W 075°48'3 6.9
2018-May-14 15:30N 39°32' W 075°52'4 7.8
2018-May-14 15:01N 39°29' W 075°56'4 8.1
2018-May-14 14:31N 39°26' W 075°60'4 8.1
2018-May-14 14:01N 39°24' W 076°04'4 8.3
2018-May-14 13:30N 39°22' W 076°08'4 8.5
2018-May-14 13:00N 39°19' W 076°13'16 6.2
2018-May-14 10:29N 39°12' W 076°31'3 6.2
2018-May-14 10:00N 39°13' W 076°35'0 0.4
2018-May-14 09:30N 39°13' W 076°35'2 4.0
2018-May-14 09:01N 39°15' W 076°34'0 0.0
2018-May-14 08:30N 39°15' W 076°34'0 0.0
2018-May-14 08:01N 39°15' W 076°34'0 0.0
2018-May-14 07:30N 39°15' W 076°34'0 0.0
2018-May-14 07:01N 39°15' W 076°34'0 0.0
2018-May-14 06:31N 39°15' W 076°34'0 0.0
2018-May-14 06:01N 39°15' W 076°34'0 0.0
2018-May-14 05:31N 39°15' W 076°34'0 0.0
2018-May-14 05:00N 39°15' W 076°34'0 0.0
2018-May-14 04:31N 39°15' W 076°34'0 0.0
2018-May-14 04:01N 39°15' W 076°34'0 0.0
2018-May-14 03:31N 39°15' W 076°34'0 0.0
2018-May-14 03:01N 39°15' W 076°34'0 0.0
2018-May-14 02:30N 39°15' W 076°34'0 0.0
2018-May-14 02:01N 39°15' W 076°34'0 0.0
2018-May-14 01:31N 39°15' W 076°34'0 0.0
2018-May-14 01:00N 39°15' W 076°34'0 0.0
2018-May-14 00:31N 39°15' W 076°34'0 0.0
2018-May-14 00:00N 39°15' W 076°34'0 0.0
2018-May-13 23:31N 39°15' W 076°34'0 0.0
2018-May-13 23:00N 39°15' W 076°34'0 0.0
2018-May-13 22:30N 39°15' W 076°34'0 0.0
2018-May-13 22:01N 39°15' W 076°34'0 0.0
2018-May-13 21:31N 39°15' W 076°34'0 0.0
2018-May-13 21:00N 39°15' W 076°34'0 0.0
2018-May-13 20:30N 39°15' W 076°34'0 0.0
2018-May-13 20:01N 39°15' W 076°34'0 0.0
2018-May-13 19:31N 39°15' W 076°34'0 0.1
2018-May-13 19:01N 39°15' W 076°34'0 0.0
2018-May-13 18:31N 39°15' W 076°34'1 2.7
2018-May-13 18:00N 39°13' W 076°34'1 1.6
2018-May-13 17:30N 39°13' W 076°35'0 0.5
2018-May-13 17:00N 39°13' W 076°35'2 4.2
2018-May-13 16:31N 39°13' W 076°32'3 6.7
2018-May-13 16:00N 39°11' W 076°28'10 5.9
2018-May-13 14:16N 39°13' W 076°15'28 5.8
2018-May-13 09:28N 39°32' W 075°49'3 5.4
2018-May-13 08:50N 39°32' W 075°44'2 6.1
2018-May-13 08:29N 39°33' W 075°42'4 8.6
2018-May-13 08:00N 39°33' W 075°36'3 5.3
2018-May-13 07:30N 39°34' W 075°33'3 6.0
2018-May-13 07:00N 39°37' W 075°35'5 8.8
2018-May-13 06:29N 39°41' W 075°32'4 8.9
2018-May-13 06:00N 39°45' W 075°30'5 9.1
2018-May-13 05:25N 39°48' W 075°25'3 7.6
2018-May-13 05:00N 39°50' W 075°22'3 6.8
2018-May-13 04:30N 39°51' W 075°17'3 6.3
2018-May-13 04:00N 39°52' W 075°13'2 3.8
2018-May-13 03:30N 39°54' W 075°12'1 1.9
2018-May-13 02:55N 39°55' W 075°13'0 0.0
2018-May-13 02:29N 39°55' W 075°13'0 0.0
2018-May-13 01:57N 39°55' W 075°13'0 0.0
2018-May-13 01:05N 39°55' W 075°13'0 0.0
2018-May-13 00:58N 39°55' W 075°13'0 0.0
2018-May-13 00:30N 39°55' W 075°13'0 0.0
2018-May-13 00:00N 39°55' W 075°13'0 0.0
2018-May-12 23:29N 39°55' W 075°13'2 3.0
2018-May-12 22:59N 39°54' W 075°12'0 0.0
2018-May-12 22:29N 39°54' W 075°12'0 0.0
2018-May-12 22:00N 39°54' W 075°12'0 0.0
2018-May-12 21:30N 39°54' W 075°12'0 0.0
2018-May-12 21:00N 39°54' W 075°12'0 0.0
2018-May-12 20:30N 39°54' W 075°12'0 0.0
2018-May-12 20:01N 39°54' W 075°12'0 0.0
2018-May-12 19:30N 39°54' W 075°12'0 0.0
2018-May-12 18:59N 39°54' W 075°12'0 0.0
2018-May-12 18:30N 39°54' W 075°12'0 0.0
2018-May-12 17:59N 39°54' W 075°12'0 0.0
2018-May-12 17:30N 39°54' W 075°12'0 0.0
2018-May-12 17:00N 39°54' W 075°12'0 0.0
2018-May-12 16:30N 39°54' W 075°12'0 0.0
2018-May-12 16:00N 39°54' W 075°12'0 0.0
2018-May-12 15:31N 39°54' W 075°12'0 0.0
2018-May-12 15:00N 39°54' W 075°12'0 0.1
2018-May-12 14:30N 39°54' W 075°12'0 0.0
2018-May-12 14:01N 39°54' W 075°12'0 0.0
2018-May-12 13:30N 39°54' W 075°12'0 0.0
2018-May-12 13:00N 39°54' W 075°12'0 0.4
2018-May-12 12:29N 39°54' W 075°12'1 2.7
2018-May-12 12:00N 39°55' W 075°13'  
Track history (hours):
 
Tides and Currents Weather Stations Pressure Air Temp Water Temp Dewpoint Dewpoint Depression Visibility Wind Speed Wind Dir Waves Ship Positions

Baltimore

Last reported at 2018-May-22 11:45 UTC. Time now 2018-May-22 19:38 UTC.
Position N 34°16' W 077°57'.

Length 33 m.

Type: Tug. MMSI: 338602000.

Date/timePositionNaut miles runAvg speedWind from/ knotsBaromVisibWave heightAir tempDewpointWater temp
2018-May-22 11:45N 34°16' W 077°57'0 0.0
2018-May-22 11:12N 34°16' W 077°57'0 0.3
2018-May-22 11:00N 34°16' W 077°57'2 4.0
2018-May-22 10:30N 34°14' W 077°57'87 2.7
2018-May-21 02:26N 34°28' W 076°13'12 4.6
2018-May-20 23:48N 34°36' W 076°02'2 4.7
2018-May-20 23:28N 34°37' W 076°00'  
2018-May-18 13:40N 38°44' W 076°27'2 5.8
2018-May-18 13:24N 38°46' W 076°27'2 5.7
2018-May-18 13:00N 38°48' W 076°27'3 5.4
2018-May-18 12:30N 38°50' W 076°26'3 5.3
2018-May-18 12:00N 38°53' W 076°25'3 5.3
2018-May-18 11:30N 38°56' W 076°24'2 4.2
2018-May-18 11:00N 38°58' W 076°23'0 0.5
2018-May-18 10:30N 38°58' W 076°23'3 5.8
2018-May-18 10:00N 39°01' W 076°22'7 5.4
2018-May-18 08:42N 39°07' W 076°19'13 6.6
2018-May-18 06:46N 39°19' W 076°13'2 7.9
2018-May-18 06:30N 39°21' W 076°11'4 7.8
2018-May-18 06:00N 39°23' W 076°07'4 7.3
2018-May-18 05:30N 39°24' W 076°02'3 7.0
2018-May-18 05:00N 39°27' W 075°59'3 6.6
2018-May-18 04:31N 39°29' W 075°56'3 6.1
2018-May-18 04:00N 39°31' W 075°53'3 5.8
2018-May-18 03:31N 39°32' W 075°50'3 5.6
2018-May-18 03:01N 39°32' W 075°46'3 5.4
2018-May-18 02:28N 39°33' W 075°42'2 5.0
2018-May-18 02:00N 39°33' W 075°39'2 5.0
2018-May-18 01:31N 39°33' W 075°36'2 4.9
2018-May-18 01:01N 39°34' W 075°33'3 6.1
2018-May-18 00:31N 39°37' W 075°35'4 8.1
2018-May-18 00:00N 39°40' W 075°32'4 8.8
2018-May-17 23:31N 39°44' W 075°30'4 8.3
2018-May-17 23:00N 39°48' W 075°27'4 8.5
2018-May-17 22:31N 39°50' W 075°22'4 8.2
2018-May-17 22:01N 39°51' W 075°17'1 1.4
2018-May-17 21:30N 39°51' W 075°16'0 0.3
2018-May-17 21:00N 39°51' W 075°16'0 0.0
2018-May-17 20:31N 39°51' W 075°16'0 0.0
2018-May-17 20:00N 39°51' W 075°16'0 0.0
2018-May-17 19:31N 39°51' W 075°16'0 0.2
2018-May-17 19:01N 39°51' W 075°16'4 7.5
2018-May-17 18:31N 39°53' W 075°12'1 1.5
2018-May-17 18:00N 39°54' W 075°12'0 0.0
2018-May-17 17:30N 39°54' W 075°12'0 0.0
2018-May-17 17:00N 39°54' W 075°12'0 0.0
2018-May-17 16:31N 39°54' W 075°12'0 0.0
2018-May-17 16:01N 39°54' W 075°12'0 0.0
2018-May-17 15:30N 39°54' W 075°12'0 0.0
2018-May-17 15:01N 39°54' W 075°12'0 0.0
2018-May-17 14:30N 39°54' W 075°12'0 0.0
2018-May-17 14:01N 39°54' W 075°12'0 0.0
2018-May-17 13:31N 39°54' W 075°12'0 0.0
2018-May-17 13:01N 39°54' W 075°12'0 0.0
2018-May-17 12:30N 39°54' W 075°12'0 0.0
2018-May-17 12:01N 39°54' W 075°12'0 0.0
2018-May-17 11:30N 39°54' W 075°12'0 0.0
2018-May-17 11:00N 39°54' W 075°12'0 0.0
2018-May-17 10:30N 39°54' W 075°12'0 0.0
2018-May-17 10:01N 39°54' W 075°12'0 0.0
2018-May-17 09:30N 39°54' W 075°12'0 0.0
2018-May-17 09:00N 39°54' W 075°12'0 0.0
2018-May-17 08:31N 39°54' W 075°12'0 0.0
2018-May-17 08:00N 39°54' W 075°12'0 0.0
2018-May-17 07:30N 39°54' W 075°12'0 0.0
2018-May-17 07:00N 39°54' W 075°12'0 0.0
2018-May-17 06:31N 39°54' W 075°12'0 0.0
2018-May-17 06:00N 39°54' W 075°12'0 0.0
2018-May-17 05:30N 39°54' W 075°12'0 0.0
2018-May-17 05:00N 39°54' W 075°12'0 0.0
2018-May-17 04:30N 39°54' W 075°12'0 0.0
2018-May-17 04:00N 39°54' W 075°12'0 0.0
2018-May-17 03:31N 39°54' W 075°12'0 0.0
2018-May-17 03:00N 39°54' W 075°12'0 0.0
2018-May-17 02:30N 39°54' W 075°12'0 0.0
2018-May-17 02:00N 39°54' W 075°12'0 0.0
2018-May-17 01:31N 39°54' W 075°12'0 0.0
2018-May-17 01:00N 39°54' W 075°12'0 0.0
2018-May-17 00:30N 39°54' W 075°12'0 0.0
2018-May-17 00:00N 39°54' W 075°12'0 0.0
2018-May-16 23:30N 39°54' W 075°12'0 0.0
2018-May-16 23:00N 39°54' W 075°12'0 0.0
2018-May-16 22:30N 39°54' W 075°12'0 0.0
2018-May-16 22:00N 39°54' W 075°12'0 0.0
2018-May-16 21:30N 39°54' W 075°12'0 0.0
2018-May-16 21:00N 39°54' W 075°12'0 0.0
2018-May-16 20:30N 39°54' W 075°12'0 0.0
2018-May-16 20:00N 39°54' W 075°12'0 0.0
2018-May-16 19:30N 39°54' W 075°12'0 0.0
2018-May-16 19:00N 39°54' W 075°12'0 0.1
2018-May-16 18:30N 39°54' W 075°12'0 0.0
2018-May-16 18:00N 39°54' W 075°12'1 1.4
2018-May-16 17:30N 39°53' W 075°12'4 8.3
2018-May-16 17:00N 39°51' W 075°16'0 0.0
2018-May-16 16:30N 39°51' W 075°16'2 3.1
2018-May-16 16:00N 39°51' W 075°14'3 5.4
2018-May-16 15:30N 39°54' W 075°12'0 0.3
2018-May-16 15:00N 39°54' W 075°12'0 0.1
2018-May-16 14:29N 39°54' W 075°12'0 0.0
2018-May-16 14:00N 39°54' W 075°12'0 0.0
2018-May-16 13:30N 39°54' W 075°12'0 0.0
2018-May-16 13:00N 39°54' W 075°12'0 0.0
2018-May-16 12:30N 39°54' W 075°12'0 0.0
2018-May-16 12:00N 39°54' W 075°12'0 0.0
2018-May-16 11:31N 39°54' W 075°12'0 0.0
2018-May-16 11:01N 39°54' W 075°12'0 0.0
2018-May-16 10:30N 39°54' W 075°12'0 0.0
2018-May-16 10:01N 39°54' W 075°12'0 0.0
2018-May-16 09:30N 39°54' W 075°12'0 0.0
2018-May-16 09:01N 39°54' W 075°12'0 0.0
2018-May-16 08:30N 39°54' W 075°12'0 0.0
2018-May-16 08:00N 39°54' W 075°12'0 0.0
2018-May-16 07:30N 39°54' W 075°12'0 0.0
2018-May-16 07:00N 39°54' W 075°12'0 0.0
2018-May-16 06:30N 39°54' W 075°12'0 0.0
2018-May-16 06:00N 39°54' W 075°12'0 0.0
2018-May-16 05:30N 39°54' W 075°12'0 0.0
2018-May-16 05:00N 39°54' W 075°12'0 0.0
2018-May-16 04:30N 39°54' W 075°12'0 0.0
2018-May-16 04:00N 39°54' W 075°12'0 0.0
2018-May-16 03:30N 39°54' W 075°12'0 0.0
2018-May-16 03:00N 39°54' W 075°12'0 0.0
2018-May-16 02:30N 39°54' W 075°12'0 0.0
2018-May-16 02:00N 39°54' W 075°12'0 0.0
2018-May-16 01:30N 39°54' W 075°12'0 0.0
2018-May-16 01:00N 39°54' W 075°12'0 0.0
2018-May-16 00:30N 39°54' W 075°12'0 0.0
2018-May-16 00:00N 39°54' W 075°12'0 0.1
2018-May-15 23:30N 39°54' W 075°12'0 0.0
2018-May-15 23:00N 39°54' W 075°12'0 0.0
2018-May-15 22:30N 39°54' W 075°12'0 0.0
2018-May-15 22:00N 39°54' W 075°12'0 0.0
2018-May-15 21:30N 39°54' W 075°12'0 0.0
2018-May-15 21:00N 39°54' W 075°12'0 0.0
2018-May-15 20:30N 39°54' W 075°12'0 0.0
2018-May-15 20:00N 39°54' W 075°12'0 0.0
2018-May-15 19:30N 39°54' W 075°12'0 0.0
2018-May-15 19:01N 39°54' W 075°12'0 0.0
2018-May-15 18:30N 39°54' W 075°12'0 0.0
2018-May-15 18:00N 39°54' W 075°12'0 0.0
2018-May-15 17:30N 39°54' W 075°12'0 0.0
2018-May-15 17:00N 39°54' W 075°12'0 0.0
2018-May-15 16:30N 39°54' W 075°12'0 0.0
2018-May-15 16:00N 39°54' W 075°12'0 0.0
2018-May-15 15:30N 39°54' W 075°12'0 0.0
2018-May-15 15:01N 39°54' W 075°12'0 0.0
2018-May-15 14:30N 39°54' W 075°12'0 0.0
2018-May-15 14:00N 39°54' W 075°12'0 0.0
2018-May-15 13:30N 39°54' W 075°12'0 0.0
2018-May-15 13:00N 39°54' W 075°12'0 0.0
2018-May-15 12:28N 39°54' W 075°12'0 0.0
2018-May-15 11:59N 39°54' W 075°12'0 0.1
2018-May-15 11:30N 39°54' W 075°12'0 0.0
2018-May-15 11:00N 39°54' W 075°12'0 0.0
2018-May-15 10:30N 39°54' W 075°12'0 0.0
2018-May-15 10:00N 39°54' W 075°12'0 0.0
2018-May-15 09:30N 39°54' W 075°12'0 0.0
2018-May-15 09:00N 39°54' W 075°12'0 0.0
2018-May-15 08:31N 39°54' W 075°12'0 0.0
2018-May-15 08:00N 39°54' W 075°12'0 0.0
2018-May-15 07:30N 39°54' W 075°12'0 0.2
2018-May-15 07:00N 39°54' W 075°12'0 1.0
2018-May-15 06:30N 39°53' W 075°12'2 3.6
2018-May-15 06:00N 39°52' W 075°13'0 0.0
2018-May-15 05:30N 39°52' W 075°13'0 0.0
2018-May-15 05:00N 39°52' W 075°13'0 0.0
2018-May-15 04:30N 39°52' W 075°13'0 0.0
2018-May-15 04:00N 39°52' W 075°13'0 0.0
2018-May-15 03:30N 39°52' W 075°13'0 0.0
2018-May-15 03:00N 39°52' W 075°13'0 0.0
2018-May-15 02:31N 39°52' W 075°13'0 0.0
2018-May-15 02:01N 39°52' W 075°13'0 0.0
2018-May-15 01:30N 39°52' W 075°13'0 0.1
2018-May-15 01:00N 39°52' W 075°13'0 0.1
2018-May-15 00:30N 39°52' W 075°13'0 0.1
2018-May-15 00:00N 39°52' W 075°13'0 0.0
2018-May-14 23:30N 39°52' W 075°13'0 0.0
2018-May-14 23:01N 39°52' W 075°13'0 0.0
2018-May-14 22:30N 39°52' W 075°13'0 0.3
2018-May-14 22:00N 39°52' W 075°13'3 6.5
2018-May-14 21:31N 39°51' W 075°17'3 6.2
2018-May-14 21:01N 39°50' W 075°21'3 6.1
2018-May-14 20:31N 39°48' W 075°25'3 6.5
2018-May-14 20:01N 39°47' W 075°28'3 6.5
2018-May-14 19:31N 39°44' W 075°30'3 6.3
2018-May-14 19:00N 39°41' W 075°31'3 6.7
2018-May-14 18:30N 39°38' W 075°34'3 6.2
2018-May-14 18:01N 39°35' W 075°34'2 3.7
2018-May-14 17:31N 39°33' W 075°35'3 6.5
2018-May-14 17:00N 39°33' W 075°39'3 6.6
2018-May-14 16:30N 39°33' W 075°43'3 6.9
2018-May-14 16:01N 39°32' W 075°48'3 6.9
2018-May-14 15:30N 39°32' W 075°52'4 7.8
2018-May-14 15:01N 39°29' W 075°56'4 8.1
2018-May-14 14:31N 39°26' W 075°60'4 8.1
2018-May-14 14:01N 39°24' W 076°04'4 8.3
2018-May-14 13:30N 39°22' W 076°08'4 8.5
2018-May-14 13:00N 39°19' W 076°13'16 6.2
2018-May-14 10:29N 39°12' W 076°31'3 6.2
2018-May-14 10:00N 39°13' W 076°35'0 0.4
2018-May-14 09:30N 39°13' W 076°35'2 4.0
2018-May-14 09:01N 39°15' W 076°34'0 0.0
2018-May-14 08:30N 39°15' W 076°34'0 0.0
2018-May-14 08:01N 39°15' W 076°34'0 0.0
2018-May-14 07:30N 39°15' W 076°34'0 0.0
2018-May-14 07:01N 39°15' W 076°34'0 0.0
2018-May-14 06:31N 39°15' W 076°34'0 0.0
2018-May-14 06:01N 39°15' W 076°34'0 0.0
2018-May-14 05:31N 39°15' W 076°34'0 0.0
2018-May-14 05:00N 39°15' W 076°34'0 0.0
2018-May-14 04:31N 39°15' W 076°34'0 0.0
2018-May-14 04:01N 39°15' W 076°34'0 0.0
2018-May-14 03:31N 39°15' W 076°34'0 0.0
2018-May-14 03:01N 39°15' W 076°34'0 0.0
2018-May-14 02:30N 39°15' W 076°34'0 0.0
2018-May-14 02:01N 39°15' W 076°34'0 0.0
2018-May-14 01:31N 39°15' W 076°34'0 0.0
2018-May-14 01:00N 39°15' W 076°34'0 0.0
2018-May-14 00:31N 39°15' W 076°34'0 0.0
2018-May-14 00:00N 39°15' W 076°34'0 0.0
2018-May-13 23:31N 39°15' W 076°34'0 0.0
2018-May-13 23:00N 39°15' W 076°34'0 0.0
2018-May-13 22:30N 39°15' W 076°34'0 0.0
2018-May-13 22:01N 39°15' W 076°34'0 0.0
2018-May-13 21:31N 39°15' W 076°34'0 0.0
2018-May-13 21:00N 39°15' W 076°34'0 0.0
2018-May-13 20:30N 39°15' W 076°34'0 0.0
2018-May-13 20:01N 39°15' W 076°34'0 0.0
2018-May-13 19:31N 39°15' W 076°34'0 0.1
2018-May-13 19:01N 39°15' W 076°34'0 0.0
2018-May-13 18:31N 39°15' W 076°34'1 2.7
2018-May-13 18:00N 39°13' W 076°34'1 1.6
2018-May-13 17:30N 39°13' W 076°35'0 0.5
2018-May-13 17:00N 39°13' W 076°35'2 4.2
2018-May-13 16:31N 39°13' W 076°32'3 6.7
2018-May-13 16:00N 39°11' W 076°28'10 5.9
2018-May-13 14:16N 39°13' W 076°15'28 5.8
2018-May-13 09:28N 39°32' W 075°49'3 5.4
2018-May-13 08:50N 39°32' W 075°44'2 6.1
2018-May-13 08:29N 39°33' W 075°42'4 8.6
2018-May-13 08:00N 39°33' W 075°36'3 5.3
2018-May-13 07:30N 39°34' W 075°33'3 6.0
2018-May-13 07:00N 39°37' W 075°35'5 8.8
2018-May-13 06:29N 39°41' W 075°32'4 8.9
2018-May-13 06:00N 39°45' W 075°30'5 9.1
2018-May-13 05:25N 39°48' W 075°25'3 7.6
2018-May-13 05:00N 39°50' W 075°22'3 6.8
2018-May-13 04:30N 39°51' W 075°17'3 6.3
2018-May-13 04:00N 39°52' W 075°13'2 3.8
2018-May-13 03:30N 39°54' W 075°12'1 1.9
2018-May-13 02:55N 39°55' W 075°13'0 0.0
2018-May-13 02:29N 39°55' W 075°13'0 0.0
2018-May-13 01:57N 39°55' W 075°13'0 0.0
2018-May-13 01:05N 39°55' W 075°13'0 0.0
2018-May-13 00:58N 39°55' W 075°13'0 0.0
2018-May-13 00:30N 39°55' W 075°13'0 0.0
2018-May-13 00:00N 39°55' W 075°13'0 0.0
2018-May-12 23:29N 39°55' W 075°13'2 3.0
2018-May-12 22:59N 39°54' W 075°12'0 0.0
2018-May-12 22:29N 39°54' W 075°12'0 0.0
2018-May-12 22:00N 39°54' W 075°12'0 0.0
2018-May-12 21:30N 39°54' W 075°12'0 0.0
2018-May-12 21:00N 39°54' W 075°12'0 0.0
2018-May-12 20:30N 39°54' W 075°12'0 0.0
2018-May-12 20:01N 39°54' W 075°12'0 0.0
2018-May-12 19:30N 39°54' W 075°12'0 0.0
2018-May-12 18:59N 39°54' W 075°12'0 0.0
2018-May-12 18:30N 39°54' W 075°12'0 0.0
2018-May-12 17:59N 39°54' W 075°12'0 0.0
2018-May-12 17:30N 39°54' W 075°12'0 0.0
2018-May-12 17:00N 39°54' W 075°12'0 0.0
2018-May-12 16:30N 39°54' W 075°12'0 0.0
2018-May-12 16:00N 39°54' W 075°12'0 0.0
2018-May-12 15:31N 39°54' W 075°12'0 0.0
2018-May-12 15:00N 39°54' W 075°12'0 0.1
2018-May-12 14:30N 39°54' W 075°12'0 0.0
2018-May-12 14:01N 39°54' W 075°12'0 0.0
2018-May-12 13:30N 39°54' W 075°12'0 0.0
2018-May-12 13:00N 39°54' W 075°12'0 0.4
2018-May-12 12:29N 39°54' W 075°12'1 2.7
2018-May-12 12:00N 39°55' W 075°13'  

Dump ship's entire track history